Estación Meteorológica Peña el Pijo (Robertgarden) [ 09/28/20 19:05:28 CEST ]

Fecha Hora Presion(HPa) Temp (°C) Humedad % Rocio (°C) Viento ( m/s) Direccion Lluvia 1Hora(mm) Lluvia 24H(mm) LLuvia Total(mm)
2020-Sep-24 01:09:39 1009.100 17.0 69 11.3 - N     89.61
2020-Sep-24 02:09:14 1009.200 16.1 74 11.5 - N     89.61
2020-Sep-24 03:09:19 1009.400 15.4 75 11.0 - N     89.61
2020-Sep-24 04:09:48 1009.000 13.9 79 10.3 - N     89.61
2020-Sep-24 05:09:27 1008.700 14.9 79 11.3 - N     89.61
2020-Sep-24 06:09:27 1008.500 14.5 79 10.9 - N     89.61
2020-Sep-24 07:09:12 1008.600 14.3 79 10.7 - N     89.61
2020-Sep-24 08:09:34 1008.700 13.6 79 10.0 - N     89.61
2020-Sep-24 09:08:54 1009.200 14.9 77 10.9 - N     89.61
2020-Sep-24 10:08:59 1009.300 16.9 73 12.0 - N     89.61
2020-Sep-24 11:10:30 1009.500 22.3 55 12.8 - N     89.61
2020-Sep-24 12:09:49 1009.600 24.8 45 12.0 - N     89.61
2020-Sep-24 13:10:06 1009.900 25.3 44 12.1 - N     89.61
2020-Sep-24 14:09:14 1009.900 24.5 43 11.1 - N     89.61
2020-Sep-24 15:09:28 1009.200 25.0 41 10.8 - N     89.61
2020-Sep-24 16:09:29 1009.600 23.9 42 10.2 - N     89.61
2020-Sep-24 17:09:36 1009.300 21.8 54 12.0 - N     89.61
2020-Sep-24 18:09:44 1009.000 20.9 57 12.1 - N     89.61
2020-Sep-24 19:10:14 1009.000 20.1 58 11.5 - N     89.61
2020-Sep-24 20:09:39 1009.400 18.4 67 12.1 - N     89.61
2020-Sep-24 21:09:13 1010.000 17.3 72 12.2 - N     89.61
2020-Sep-24 22:10:04 1010.600 17.0 72 11.9 - N     89.61
2020-Sep-24 23:09:54 1010.500 17.1 72 12.0 - N     89.61

Temperatura Máxima:25°    Temperatura Mínima:13°
Presión Máxima:1010.600 Hpa    Presión Mínima:1008.500 Hpa


Volver